sensor_id;sensor_type;location;lat;lon;timestamp;P1;durP1;ratioP1;P2;durP2;ratioP2
42518;SDS011;28147;47.520;18.920;2023-01-01T00:01:04;22.08;;;13.50;;
42518;SDS011;28147;47.520;18.920;2023-01-01T00:03:33;22.40;;;12.82;;
42518;SDS011;28147;47.520;18.920;2023-01-01T00:05:58;21.13;;;12.43;;
42518;SDS011;28147;47.520;18.920;2023-01-01T00:08:28;24.00;;;12.77;;
42518;SDS011;28147;47.520;18.920;2023-01-01T00:10:54;21.77;;;12.82;;
42518;SDS011;28147;47.520;18.920;2023-01-01T00:13:19;16.35;;;10.18;;
42518;SDS011;28147;47.520;18.920;2023-01-01T00:15:44;17.20;;;10.68;;
42518;SDS011;28147;47.520;18.920;2023-01-01T00:18:10;15.13;;;9.25;;
42518;SDS011;28147;47.520;18.920;2023-01-01T00:20:35;14.65;;;8.63;;
42518;SDS011;28147;47.520;18.920;2023-01-01T00:23:00;19.05;;;8.90;;
42518;SDS011;28147;47.520;18.920;2023-01-01T00:25:26;10.82;;;6.75;;
42518;SDS011;28147;47.520;18.920;2023-01-01T00:27:51;13.70;;;7.05;;
42518;SDS011;28147;47.520;18.920;2023-01-01T00:30:17;12.63;;;7.43;;
42518;SDS011;28147;47.520;18.920;2023-01-01T00:32:42;12.23;;;7.78;;
42518;SDS011;28147;47.520;18.920;2023-01-01T00:35:09;14.73;;;7.25;;
42518;SDS011;28147;47.520;18.920;2023-01-01T00:37:34;13.65;;;6.57;;
42518;SDS011;28147;47.520;18.920;2023-01-01T00:40:00;9.68;;;5.13;;
42518;SDS011;28147;47.520;18.920;2023-01-01T00:42:25;10.30;;;5.95;;
42518;SDS011;28147;47.520;18.920;2023-01-01T00:44:51;10.20;;;5.25;;
42518;SDS011;28147;47.520;18.920;2023-01-01T00:47:16;10.63;;;5.50;;
42518;SDS011;28147;47.520;18.920;2023-01-01T00:49:41;10.18;;;6.13;;
42518;SDS011;28147;47.520;18.920;2023-01-01T00:52:07;9.77;;;6.45;;
42518;SDS011;28147;47.520;18.920;2023-01-01T00:54:32;15.13;;;6.70;;
42518;SDS011;28147;47.520;18.920;2023-01-01T00:56:58;11.85;;;6.53;;
42518;SDS011;28147;47.520;18.920;2023-01-01T00:59:23;13.20;;;6.43;;
42518;SDS011;28147;47.520;18.920;2023-01-01T01:01:49;10.93;;;5.78;;
42518;SDS011;28147;47.520;18.920;2023-01-01T01:04:14;10.95;;;5.78;;
42518;SDS011;28147;47.520;18.920;2023-01-01T01:06:39;14.07;;;7.78;;
42518;SDS011;28147;47.520;18.920;2023-01-01T01:09:05;12.88;;;6.35;;
42518;SDS011;28147;47.520;18.920;2023-01-01T01:11:31;15.65;;;6.55;;
42518;SDS011;28147;47.520;18.920;2023-01-01T01:13:57;12.93;;;5.95;;
42518;SDS011;28147;47.520;18.920;2023-01-01T01:16:27;13.00;;;6.40;;
42518;SDS011;28147;47.520;18.920;2023-01-01T01:18:56;13.63;;;6.75;;
42518;SDS011;28147;47.520;18.920;2023-01-01T01:21:24;13.90;;;6.45;;
42518;SDS011;28147;47.520;18.920;2023-01-01T01:23:50;14.20;;;7.45;;
42518;SDS011;28147;47.520;18.920;2023-01-01T01:26:17;14.88;;;7.10;;
42518;SDS011;28147;47.520;18.920;2023-01-01T01:28:47;13.55;;;6.90;;
42518;SDS011;28147;47.520;18.920;2023-01-01T01:31:13;16.45;;;7.22;;
42518;SDS011;28147;47.520;18.920;2023-01-01T01:33:39;14.98;;;7.55;;
42518;SDS011;28147;47.520;18.920;2023-01-01T01:36:06;13.07;;;6.57;;
42518;SDS011;28147;47.520;18.920;2023-01-01T01:38:33;13.27;;;7.25;;
42518;SDS011;28147;47.520;18.920;2023-01-01T01:40:59;12.43;;;7.30;;
42518;SDS011;28147;47.520;18.920;2023-01-01T01:43:43;12.20;;;6.97;;
42518;SDS011;28147;47.520;18.920;2023-01-01T01:49:13;14.30;;;6.13;;
42518;SDS011;28147;47.520;18.920;2023-01-01T01:51:42;11.68;;;6.15;;
42518;SDS011;28147;47.520;18.920;2023-01-01T01:54:09;12.50;;;5.22;;
42518;SDS011;28147;47.520;18.920;2023-01-01T01:59:06;10.13;;;5.35;;
42518;SDS011;28147;47.520;18.920;2023-01-01T02:01:33;12.30;;;4.72;;
42518;SDS011;28147;47.520;18.920;2023-01-01T02:03:59;12.20;;;4.93;;
42518;SDS011;28147;47.520;18.920;2023-01-01T02:06:26;8.00;;;4.60;;
42518;SDS011;28147;47.520;18.920;2023-01-01T02:08:53;7.47;;;4.53;;
42518;SDS011;28147;47.520;18.920;2023-01-01T02:11:20;7.85;;;4.30;;
42518;SDS011;28147;47.520;18.920;2023-01-01T02:13:46;9.77;;;4.45;;
42518;SDS011;28147;47.520;18.920;2023-01-01T02:16:12;8.02;;;4.50;;
42518;SDS011;28147;47.520;18.920;2023-01-01T02:21:29;8.70;;;4.95;;
42518;SDS011;28147;47.520;18.920;2023-01-01T02:26:53;9.95;;;5.10;;
42518;SDS011;28147;47.520;18.920;2023-01-01T02:29:28;9.20;;;4.70;;
42518;SDS011;28147;47.520;18.920;2023-01-01T02:34:42;9.77;;;4.45;;
42518;SDS011;28147;47.520;18.920;2023-01-01T02:37:12;7.93;;;4.45;;
42518;SDS011;28147;47.520;18.920;2023-01-01T02:39:41;6.53;;;4.38;;
42518;SDS011;28147;47.520;18.920;2023-01-01T02:42:12;9.23;;;4.75;;
42518;SDS011;28147;47.520;18.920;2023-01-01T02:44:38;8.35;;;4.55;;
42518;SDS011;28147;47.520;18.920;2023-01-01T02:47:07;10.63;;;4.60;;
42518;SDS011;28147;47.520;18.920;2023-01-01T02:49:41;10.43;;;4.90;;
42518;SDS011;28147;47.520;18.920;2023-01-01T02:52:17;10.48;;;4.65;;
42518;SDS011;28147;47.520;18.920;2023-01-01T03:00:06;11.23;;;5.20;;
42518;SDS011;28147;47.520;18.920;2023-01-01T03:10:43;8.18;;;4.50;;
42518;SDS011;28147;47.520;18.920;2023-01-01T03:15:50;7.68;;;4.10;;
42518;SDS011;28147;47.520;18.920;2023-01-01T03:18:36;8.15;;;4.05;;
42518;SDS011;28147;47.520;18.920;2023-01-01T03:21:07;9.30;;;3.97;;
42518;SDS011;28147;47.520;18.920;2023-01-01T03:23:39;9.77;;;3.83;;
42518;SDS011;28147;47.520;18.920;2023-01-01T03:26:11;8.80;;;4.32;;
42518;SDS011;28147;47.520;18.920;2023-01-01T03:28:43;7.35;;;3.65;;
42518;SDS011;28147;47.520;18.920;2023-01-01T03:31:20;9.77;;;3.58;;
42518;SDS011;28147;47.520;18.920;2023-01-01T03:33:57;7.45;;;3.53;;
42518;SDS011;28147;47.520;18.920;2023-01-01T03:36:30;8.10;;;3.95;;
42518;SDS011;28147;47.520;18.920;2023-01-01T03:39:01;8.35;;;4.43;;
42518;SDS011;28147;47.520;18.920;2023-01-01T03:44:07;6.93;;;3.47;;
42518;SDS011;28147;47.520;18.920;2023-01-01T03:46:38;8.68;;;4.30;;
42518;SDS011;28147;47.520;18.920;2023-01-01T03:49:05;6.78;;;3.55;;
42518;SDS011;28147;47.520;18.920;2023-01-01T03:54:35;7.18;;;3.65;;
42518;SDS011;28147;47.520;18.920;2023-01-01T03:57:21;6.43;;;3.80;;
42518;SDS011;28147;47.520;18.920;2023-01-01T03:59:55;9.75;;;4.00;;
42518;SDS011;28147;47.520;18.920;2023-01-01T04:02:24;7.63;;;3.53;;
42518;SDS011;28147;47.520;18.920;2023-01-01T04:04:53;8.20;;;4.13;;
42518;SDS011;28147;47.520;18.920;2023-01-01T04:07:21;9.88;;;3.63;;
42518;SDS011;28147;47.520;18.920;2023-01-01T04:09:50;6.43;;;3.80;;
42518;SDS011;28147;47.520;18.920;2023-01-01T04:12:19;10.60;;;3.88;;
42518;SDS011;28147;47.520;18.920;2023-01-01T04:14:45;10.00;;;3.88;;
42518;SDS011;28147;47.520;18.920;2023-01-01T04:17:11;9.68;;;4.95;;
42518;SDS011;28147;47.520;18.920;2023-01-01T04:19:36;9.48;;;4.43;;
42518;SDS011;28147;47.520;18.920;2023-01-01T04:22:02;11.55;;;4.97;;
42518;SDS011;28147;47.520;18.920;2023-01-01T04:24:28;9.10;;;4.35;;
42518;SDS011;28147;47.520;18.920;2023-01-01T04:26:54;11.85;;;4.75;;
42518;SDS011;28147;47.520;18.920;2023-01-01T04:29:20;11.63;;;5.18;;
42518;SDS011;28147;47.520;18.920;2023-01-01T04:31:47;11.48;;;5.28;;
42518;SDS011;28147;47.520;18.920;2023-01-01T04:34:13;10.10;;;5.45;;
42518;SDS011;28147;47.520;18.920;2023-01-01T04:36:39;8.68;;;5.40;;
42518;SDS011;28147;47.520;18.920;2023-01-01T04:39:04;10.55;;;5.60;;
42518;SDS011;28147;47.520;18.920;2023-01-01T04:41:30;10.35;;;5.35;;
42518;SDS011;28147;47.520;18.920;2023-01-01T04:43:56;13.93;;;6.10;;
42518;SDS011;28147;47.520;18.920;2023-01-01T04:46:22;14.00;;;5.70;;
42518;SDS011;28147;47.520;18.920;2023-01-01T04:48:48;9.43;;;5.25;;
42518;SDS011;28147;47.520;18.920;2023-01-01T04:51:14;10.93;;;5.40;;
42518;SDS011;28147;47.520;18.920;2023-01-01T04:53:41;11.07;;;5.60;;
42518;SDS011;28147;47.520;18.920;2023-01-01T04:56:08;9.02;;;4.53;;
42518;SDS011;28147;47.520;18.920;2023-01-01T04:58:38;11.30;;;5.05;;
42518;SDS011;28147;47.520;18.920;2023-01-01T05:01:14;8.85;;;4.75;;
42518;SDS011;28147;47.520;18.920;2023-01-01T05:03:44;13.80;;;6.35;;
42518;SDS011;28147;47.520;18.920;2023-01-01T05:06:11;9.32;;;5.10;;
42518;SDS011;28147;47.520;18.920;2023-01-01T05:08:38;11.40;;;5.60;;
42518;SDS011;28147;47.520;18.920;2023-01-01T05:11:06;12.18;;;5.10;;
42518;SDS011;28147;47.520;18.920;2023-01-01T05:13:34;13.68;;;5.53;;
42518;SDS011;28147;47.520;18.920;2023-01-01T05:16:03;10.05;;;5.90;;
42518;SDS011;28147;47.520;18.920;2023-01-01T05:18:32;9.15;;;4.90;;
42518;SDS011;28147;47.520;18.920;2023-01-01T05:21:02;9.48;;;5.10;;
42518;SDS011;28147;47.520;18.920;2023-01-01T05:23:30;11.25;;;5.60;;
42518;SDS011;28147;47.520;18.920;2023-01-01T05:25:56;12.25;;;4.63;;
42518;SDS011;28147;47.520;18.920;2023-01-01T05:28:22;8.65;;;4.30;;
42518;SDS011;28147;47.520;18.920;2023-01-01T05:30:49;7.78;;;4.63;;
42518;SDS011;28147;47.520;18.920;2023-01-01T05:33:16;7.97;;;4.35;;
42518;SDS011;28147;47.520;18.920;2023-01-01T05:35:41;7.70;;;3.55;;
42518;SDS011;28147;47.520;18.920;2023-01-01T05:38:06;8.02;;;4.13;;
42518;SDS011;28147;47.520;18.920;2023-01-01T05:40:32;5.75;;;2.95;;
42518;SDS011;28147;47.520;18.920;2023-01-01T05:42:57;7.88;;;3.58;;
42518;SDS011;28147;47.520;18.920;2023-01-01T05:45:23;7.75;;;3.40;;
42518;SDS011;28147;47.520;18.920;2023-01-01T05:47:48;6.18;;;3.65;;
42518;SDS011;28147;47.520;18.920;2023-01-01T05:50:13;7.72;;;4.05;;
42518;SDS011;28147;47.520;18.920;2023-01-01T05:52:39;7.82;;;3.33;;
42518;SDS011;28147;47.520;18.920;2023-01-01T05:55:04;6.50;;;3.78;;
42518;SDS011;28147;47.520;18.920;2023-01-01T05:57:30;8.07;;;3.58;;
42518;SDS011;28147;47.520;18.920;2023-01-01T05:59:55;6.75;;;3.13;;
42518;SDS011;28147;47.520;18.920;2023-01-01T06:02:21;8.20;;;3.47;;
42518;SDS011;28147;47.520;18.920;2023-01-01T06:04:46;5.13;;;2.88;;
42518;SDS011;28147;47.520;18.920;2023-01-01T06:07:12;8.05;;;4.65;;
42518;SDS011;28147;47.520;18.920;2023-01-01T06:09:37;9.82;;;4.10;;
42518;SDS011;28147;47.520;18.920;2023-01-01T06:12:03;8.70;;;3.50;;
42518;SDS011;28147;47.520;18.920;2023-01-01T06:14:28;6.93;;;3.45;;
42518;SDS011;28147;47.520;18.920;2023-01-01T06:16:54;6.35;;;2.95;;
42518;SDS011;28147;47.520;18.920;2023-01-01T06:19:19;6.13;;;3.25;;
42518;SDS011;28147;47.520;18.920;2023-01-01T06:21:44;9.50;;;3.80;;
42518;SDS011;28147;47.520;18.920;2023-01-01T06:24:10;8.95;;;3.63;;
42518;SDS011;28147;47.520;18.920;2023-01-01T06:26:35;6.07;;;3.40;;
42518;SDS011;28147;47.520;18.920;2023-01-01T06:29:01;5.85;;;3.40;;
42518;SDS011;28147;47.520;18.920;2023-01-01T06:31:27;7.25;;;3.95;;
42518;SDS011;28147;47.520;18.920;2023-01-01T06:33:54;7.28;;;3.50;;
42518;SDS011;28147;47.520;18.920;2023-01-01T06:36:20;6.13;;;2.63;;
42518;SDS011;28147;47.520;18.920;2023-01-01T06:38:48;6.47;;;3.30;;
42518;SDS011;28147;47.520;18.920;2023-01-01T06:41:16;6.32;;;3.20;;
42518;SDS011;28147;47.520;18.920;2023-01-01T06:43:42;7.07;;;3.85;;
42518;SDS011;28147;47.520;18.920;2023-01-01T06:46:13;7.65;;;3.28;;
42518;SDS011;28147;47.520;18.920;2023-01-01T06:48:41;6.70;;;3.53;;
42518;SDS011;28147;47.520;18.920;2023-01-01T06:51:07;5.60;;;2.72;;
42518;SDS011;28147;47.520;18.920;2023-01-01T06:53:37;6.68;;;3.35;;
42518;SDS011;28147;47.520;18.920;2023-01-01T06:56:03;7.78;;;4.13;;
42518;SDS011;28147;47.520;18.920;2023-01-01T06:58:29;8.35;;;4.30;;
42518;SDS011;28147;47.520;18.920;2023-01-01T07:01:02;7.80;;;4.00;;
42518;SDS011;28147;47.520;18.920;2023-01-01T07:03:38;7.35;;;4.20;;
42518;SDS011;28147;47.520;18.920;2023-01-01T07:06:04;6.85;;;3.88;;
42518;SDS011;28147;47.520;18.920;2023-01-01T07:08:30;6.65;;;3.60;;
42518;SDS011;28147;47.520;18.920;2023-01-01T07:10:56;8.40;;;4.45;;
42518;SDS011;28147;47.520;18.920;2023-01-01T07:13:23;7.25;;;4.03;;
42518;SDS011;28147;47.520;18.920;2023-01-01T07:15:49;5.90;;;3.20;;
42518;SDS011;28147;47.520;18.920;2023-01-01T07:18:14;6.38;;;3.25;;
42518;SDS011;28147;47.520;18.920;2023-01-01T07:20:40;6.53;;;4.05;;
42518;SDS011;28147;47.520;18.920;2023-01-01T07:23:05;7.05;;;3.85;;
42518;SDS011;28147;47.520;18.920;2023-01-01T07:25:31;6.50;;;3.35;;
42518;SDS011;28147;47.520;18.920;2023-01-01T07:27:56;7.88;;;3.20;;
42518;SDS011;28147;47.520;18.920;2023-01-01T07:30:21;7.57;;;4.10;;
42518;SDS011;28147;47.520;18.920;2023-01-01T07:32:52;6.50;;;3.83;;
42518;SDS011;28147;47.520;18.920;2023-01-01T07:35:18;7.55;;;4.05;;
42518;SDS011;28147;47.520;18.920;2023-01-01T07:37:44;8.50;;;4.18;;
42518;SDS011;28147;47.520;18.920;2023-01-01T07:40:09;7.80;;;4.00;;
42518;SDS011;28147;47.520;18.920;2023-01-01T07:42:35;7.78;;;3.90;;
42518;SDS011;28147;47.520;18.920;2023-01-01T07:45:00;7.63;;;4.03;;
42518;SDS011;28147;47.520;18.920;2023-01-01T07:47:26;8.75;;;4.15;;
42518;SDS011;28147;47.520;18.920;2023-01-01T07:49:51;8.43;;;4.32;;
42518;SDS011;28147;47.520;18.920;2023-01-01T07:52:17;9.40;;;4.43;;
42518;SDS011;28147;47.520;18.920;2023-01-01T07:54:43;8.88;;;4.25;;
42518;SDS011;28147;47.520;18.920;2023-01-01T07:57:08;6.13;;;3.63;;
42518;SDS011;28147;47.520;18.920;2023-01-01T07:59:34;6.38;;;3.80;;
42518;SDS011;28147;47.520;18.920;2023-01-01T08:02:00;7.60;;;3.97;;
42518;SDS011;28147;47.520;18.920;2023-01-01T08:04:26;8.63;;;4.43;;
42518;SDS011;28147;47.520;18.920;2023-01-01T08:06:52;10.27;;;5.00;;
42518;SDS011;28147;47.520;18.920;2023-01-01T08:09:17;9.20;;;4.57;;
42518;SDS011;28147;47.520;18.920;2023-01-01T08:11:43;7.40;;;3.95;;
42518;SDS011;28147;47.520;18.920;2023-01-01T08:14:08;8.02;;;4.25;;
42518;SDS011;28147;47.520;18.920;2023-01-01T08:16:34;8.13;;;4.22;;
42518;SDS011;28147;47.520;18.920;2023-01-01T08:18:59;7.57;;;4.47;;
42518;SDS011;28147;47.520;18.920;2023-01-01T08:21:25;9.80;;;4.93;;
42518;SDS011;28147;47.520;18.920;2023-01-01T08:23:50;8.98;;;4.68;;
42518;SDS011;28147;47.520;18.920;2023-01-01T08:26:16;9.30;;;4.25;;
42518;SDS011;28147;47.520;18.920;2023-01-01T08:28:42;7.85;;;4.75;;
42518;SDS011;28147;47.520;18.920;2023-01-01T08:31:08;11.60;;;5.00;;
42518;SDS011;28147;47.520;18.920;2023-01-01T08:33:34;11.70;;;5.43;;
42518;SDS011;28147;47.520;18.920;2023-01-01T08:36:00;9.30;;;4.93;;
42518;SDS011;28147;47.520;18.920;2023-01-01T08:38:25;8.50;;;4.80;;
42518;SDS011;28147;47.520;18.920;2023-01-01T08:40:51;9.35;;;5.22;;
42518;SDS011;28147;47.520;18.920;2023-01-01T08:43:17;8.90;;;5.22;;
42518;SDS011;28147;47.520;18.920;2023-01-01T08:45:42;7.53;;;5.15;;
42518;SDS011;28147;47.520;18.920;2023-01-01T08:48:09;9.32;;;5.60;;
42518;SDS011;28147;47.520;18.920;2023-01-01T08:50:34;7.70;;;5.10;;
42518;SDS011;28147;47.520;18.920;2023-01-01T08:53:00;8.50;;;5.20;;
42518;SDS011;28147;47.520;18.920;2023-01-01T08:55:25;8.95;;;5.13;;
42518;SDS011;28147;47.520;18.920;2023-01-01T08:57:51;9.90;;;5.95;;
42518;SDS011;28147;47.520;18.920;2023-01-01T09:00:16;8.35;;;4.68;;
42518;SDS011;28147;47.520;18.920;2023-01-01T09:02:42;8.23;;;4.45;;
42518;SDS011;28147;47.520;18.920;2023-01-01T09:05:07;7.88;;;4.32;;
42518;SDS011;28147;47.520;18.920;2023-01-01T09:07:33;7.95;;;5.20;;
42518;SDS011;28147;47.520;18.920;2023-01-01T09:09:59;9.18;;;5.07;;
42518;SDS011;28147;47.520;18.920;2023-01-01T09:12:24;11.90;;;4.95;;
42518;SDS011;28147;47.520;18.920;2023-01-01T09:14:50;9.10;;;4.50;;
42518;SDS011;28147;47.520;18.920;2023-01-01T09:17:15;7.93;;;4.88;;
42518;SDS011;28147;47.520;18.920;2023-01-01T09:19:40;7.47;;;4.50;;
42518;SDS011;28147;47.520;18.920;2023-01-01T09:22:09;10.65;;;4.93;;
42518;SDS011;28147;47.520;18.920;2023-01-01T09:24:35;8.47;;;4.30;;
42518;SDS011;28147;47.520;18.920;2023-01-01T09:27:01;8.65;;;4.30;;
42518;SDS011;28147;47.520;18.920;2023-01-01T09:29:26;7.38;;;4.22;;
42518;SDS011;28147;47.520;18.920;2023-01-01T09:31:51;9.85;;;4.57;;
42518;SDS011;28147;47.520;18.920;2023-01-01T09:34:17;7.72;;;4.28;;
42518;SDS011;28147;47.520;18.920;2023-01-01T09:36:42;7.28;;;4.35;;
42518;SDS011;28147;47.520;18.920;2023-01-01T09:39:09;7.68;;;4.88;;
42518;SDS011;28147;47.520;18.920;2023-01-01T09:44:23;10.93;;;5.20;;
42518;SDS011;28147;47.520;18.920;2023-01-01T09:46:59;8.23;;;5.25;;
42518;SDS011;28147;47.520;18.920;2023-01-01T09:49:40;8.88;;;5.70;;
42518;SDS011;28147;47.520;18.920;2023-01-01T09:52:09;10.77;;;5.97;;
42518;SDS011;28147;47.520;18.920;2023-01-01T09:54:54;11.17;;;6.57;;
42518;SDS011;28147;47.520;18.920;2023-01-01T09:57:32;14.68;;;7.05;;
42518;SDS011;28147;47.520;18.920;2023-01-01T10:00:00;9.93;;;5.32;;
42518;SDS011;28147;47.520;18.920;2023-01-01T10:05:26;11.73;;;6.78;;
42518;SDS011;28147;47.520;18.920;2023-01-01T10:11:04;11.95;;;6.38;;
42518;SDS011;28147;47.520;18.920;2023-01-01T10:13:39;9.10;;;6.13;;
42518;SDS011;28147;47.520;18.920;2023-01-01T10:18:52;9.95;;;6.32;;
42518;SDS011;28147;47.520;18.920;2023-01-01T10:21:24;11.80;;;7.07;;
42518;SDS011;28147;47.520;18.920;2023-01-01T10:23:58;12.02;;;5.88;;
42518;SDS011;28147;47.520;18.920;2023-01-01T10:26:29;9.38;;;6.15;;
42518;SDS011;28147;47.520;18.920;2023-01-01T10:31:54;11.60;;;6.05;;
42518;SDS011;28147;47.520;18.920;2023-01-01T10:34:25;11.60;;;7.13;;
42518;SDS011;28147;47.520;18.920;2023-01-01T10:36:56;10.13;;;5.47;;
42518;SDS011;28147;47.520;18.920;2023-01-01T10:39:23;11.85;;;5.63;;
42518;SDS011;28147;47.520;18.920;2023-01-01T10:41:49;9.23;;;5.15;;
42518;SDS011;28147;47.520;18.920;2023-01-01T10:44:16;11.30;;;5.78;;
42518;SDS011;28147;47.520;18.920;2023-01-01T10:46:52;10.32;;;5.53;;
42518;SDS011;28147;47.520;18.920;2023-01-01T10:49:21;9.38;;;5.53;;
42518;SDS011;28147;47.520;18.920;2023-01-01T10:51:47;7.70;;;4.53;;
42518;SDS011;28147;47.520;18.920;2023-01-01T10:54:28;8.82;;;4.80;;
42518;SDS011;28147;47.520;18.920;2023-01-01T10:56:58;8.40;;;4.50;;
42518;SDS011;28147;47.520;18.920;2023-01-01T10:59:32;6.63;;;4.38;;
42518;SDS011;28147;47.520;18.920;2023-01-01T11:02:23;7.25;;;4.47;;
42518;SDS011;28147;47.520;18.920;2023-01-01T11:04:52;7.10;;;3.83;;
42518;SDS011;28147;47.520;18.920;2023-01-01T11:07:41;9.90;;;5.18;;
42518;SDS011;28147;47.520;18.920;2023-01-01T11:10:14;8.60;;;4.80;;
42518;SDS011;28147;47.520;18.920;2023-01-01T11:12:45;8.93;;;3.95;;
42518;SDS011;28147;47.520;18.920;2023-01-01T11:15:21;9.43;;;4.80;;
42518;SDS011;28147;47.520;18.920;2023-01-01T11:18:02;10.15;;;3.88;;
42518;SDS011;28147;47.520;18.920;2023-01-01T11:20:29;8.88;;;4.03;;
42518;SDS011;28147;47.520;18.920;2023-01-01T11:22:56;9.40;;;3.97;;
42518;SDS011;28147;47.520;18.920;2023-01-01T11:25:22;7.95;;;4.30;;
42518;SDS011;28147;47.520;18.920;2023-01-01T11:27:52;7.82;;;4.43;;
42518;SDS011;28147;47.520;18.920;2023-01-01T11:30:56;6.95;;;3.47;;
42518;SDS011;28147;47.520;18.920;2023-01-01T11:33:24;10.00;;;4.20;;
42518;SDS011;28147;47.520;18.920;2023-01-01T11:35:54;10.02;;;4.25;;
42518;SDS011;28147;47.520;18.920;2023-01-01T11:38:21;7.97;;;3.97;;
42518;SDS011;28147;47.520;18.920;2023-01-01T11:40:50;8.38;;;4.53;;
42518;SDS011;28147;47.520;18.920;2023-01-01T11:43:20;9.95;;;5.18;;
42518;SDS011;28147;47.520;18.920;2023-01-01T11:45:47;7.65;;;4.20;;
42518;SDS011;28147;47.520;18.920;2023-01-01T11:48:16;7.50;;;4.40;;
42518;SDS011;28147;47.520;18.920;2023-01-01T11:51:03;7.28;;;4.47;;
42518;SDS011;28147;47.520;18.920;2023-01-01T11:53:40;9.77;;;4.15;;
42518;SDS011;28147;47.520;18.920;2023-01-01T11:56:16;9.63;;;4.85;;
42518;SDS011;28147;47.520;18.920;2023-01-01T12:01:43;9.38;;;5.53;;
42518;SDS011;28147;47.520;18.920;2023-01-01T12:09:22;14.05;;;5.85;;
42518;SDS011;28147;47.520;18.920;2023-01-01T12:12:06;9.25;;;5.60;;
42518;SDS011;28147;47.520;18.920;2023-01-01T12:22:30;8.40;;;4.68;;
42518;SDS011;28147;47.520;18.920;2023-01-01T12:24:56;8.18;;;4.50;;
42518;SDS011;28147;47.520;18.920;2023-01-01T12:30:35;10.48;;;5.38;;
42518;SDS011;28147;47.520;18.920;2023-01-01T12:38:36;10.52;;;5.82;;
42518;SDS011;28147;47.520;18.920;2023-01-01T12:49:58;8.40;;;4.63;;
42518;SDS011;28147;47.520;18.920;2023-01-01T12:52:31;10.00;;;5.13;;
42518;SDS011;28147;47.520;18.920;2023-01-01T12:57:48;13.60;;;5.43;;
42518;SDS011;28147;47.520;18.920;2023-01-01T13:00:21;10.07;;;4.93;;
42518;SDS011;28147;47.520;18.920;2023-01-01T13:05:14;9.02;;;4.70;;
42518;SDS011;28147;47.520;18.920;2023-01-01T13:07:44;9.45;;;5.57;;
42518;SDS011;28147;47.520;18.920;2023-01-01T13:12:44;10.95;;;6.07;;
42518;SDS011;28147;47.520;18.920;2023-01-01T13:20:39;10.32;;;5.45;;
42518;SDS011;28147;47.520;18.920;2023-01-01T13:28:43;13.73;;;8.05;;
42518;SDS011;28147;47.520;18.920;2023-01-01T13:53:29;15.75;;;8.98;;
42518;SDS011;28147;47.520;18.920;2023-01-01T13:56:34;15.60;;;9.32;;
42518;SDS011;28147;47.520;18.920;2023-01-01T13:58:56;16.77;;;9.43;;
42518;SDS011;28147;47.520;18.920;2023-01-01T14:07:09;15.43;;;9.35;;
42518;SDS011;28147;47.520;18.920;2023-01-01T14:09:40;16.38;;;9.00;;
42518;SDS011;28147;47.520;18.920;2023-01-01T14:12:13;16.23;;;9.25;;
42518;SDS011;28147;47.520;18.920;2023-01-01T14:14:41;14.95;;;9.02;;
42518;SDS011;28147;47.520;18.920;2023-01-01T14:17:06;19.25;;;9.93;;
42518;SDS011;28147;47.520;18.920;2023-01-01T14:19:32;16.77;;;9.23;;
42518;SDS011;28147;47.520;18.920;2023-01-01T14:21:58;17.83;;;10.13;;
42518;SDS011;28147;47.520;18.920;2023-01-01T14:24:24;16.77;;;9.77;;
42518;SDS011;28147;47.520;18.920;2023-01-01T14:26:52;17.95;;;10.25;;
42518;SDS011;28147;47.520;18.920;2023-01-01T14:29:26;19.25;;;11.45;;
42518;SDS011;28147;47.520;18.920;2023-01-01T14:31:53;17.13;;;10.10;;
42518;SDS011;28147;47.520;18.920;2023-01-01T14:36:55;19.85;;;11.77;;
42518;SDS011;28147;47.520;18.920;2023-01-01T14:39:32;18.92;;;11.52;;
42518;SDS011;28147;47.520;18.920;2023-01-01T14:42:01;20.90;;;12.13;;
42518;SDS011;28147;47.520;18.920;2023-01-01T14:44:37;23.77;;;12.95;;
42518;SDS011;28147;47.520;18.920;2023-01-01T14:47:14;18.63;;;11.98;;
42518;SDS011;28147;47.520;18.920;2023-01-01T14:49:48;21.35;;;12.13;;
42518;SDS011;28147;47.520;18.920;2023-01-01T14:52:22;20.73;;;12.10;;
42518;SDS011;28147;47.520;18.920;2023-01-01T14:54:50;17.55;;;10.23;;
42518;SDS011;28147;47.520;18.920;2023-01-01T14:57:18;22.80;;;12.70;;
42518;SDS011;28147;47.520;18.920;2023-01-01T14:59:49;18.60;;;12.60;;
42518;SDS011;28147;47.520;18.920;2023-01-01T15:05:14;23.10;;;12.93;;
42518;SDS011;28147;47.520;18.920;2023-01-01T15:08:00;24.52;;;13.90;;
42518;SDS011;28147;47.520;18.920;2023-01-01T15:10:28;19.77;;;12.38;;
42518;SDS011;28147;47.520;18.920;2023-01-01T15:12:55;21.45;;;12.02;;
42518;SDS011;28147;47.520;18.920;2023-01-01T15:21:15;20.42;;;11.13;;
42518;SDS011;28147;47.520;18.920;2023-01-01T15:24:27;23.42;;;11.93;;
42518;SDS011;28147;47.520;18.920;2023-01-01T15:29:37;20.60;;;11.57;;
42518;SDS011;28147;47.520;18.920;2023-01-01T15:32:08;21.58;;;11.20;;
42518;SDS011;28147;47.520;18.920;2023-01-01T15:34:49;23.83;;;11.38;;
42518;SDS011;28147;47.520;18.920;2023-01-01T15:37:21;16.80;;;10.77;;
42518;SDS011;28147;47.520;18.920;2023-01-01T15:42:39;15.77;;;10.23;;
42518;SDS011;28147;47.520;18.920;2023-01-01T15:45:28;17.45;;;10.38;;
42518;SDS011;28147;47.520;18.920;2023-01-01T15:50:33;19.05;;;10.40;;
42518;SDS011;28147;47.520;18.920;2023-01-01T15:53:12;15.13;;;9.40;;
42518;SDS011;28147;47.520;18.920;2023-01-01T15:55:47;20.25;;;11.10;;
42518;SDS011;28147;47.520;18.920;2023-01-01T15:58:31;15.02;;;9.13;;
42518;SDS011;28147;47.520;18.920;2023-01-01T16:01:01;20.75;;;10.32;;
42518;SDS011;28147;47.520;18.920;2023-01-01T16:03:29;17.10;;;10.00;;
42518;SDS011;28147;47.520;18.920;2023-01-01T16:05:57;18.77;;;10.95;;
42518;SDS011;28147;47.520;18.920;2023-01-01T16:08:23;17.05;;;10.95;;
42518;SDS011;28147;47.520;18.920;2023-01-01T16:10:49;16.92;;;10.48;;
42518;SDS011;28147;47.520;18.920;2023-01-01T16:13:16;16.77;;;10.15;;
42518;SDS011;28147;47.520;18.920;2023-01-01T16:15:57;16.33;;;9.63;;
42518;SDS011;28147;47.520;18.920;2023-01-01T16:18:34;20.73;;;12.13;;
42518;SDS011;28147;47.520;18.920;2023-01-01T16:21:03;20.80;;;11.32;;
42518;SDS011;28147;47.520;18.920;2023-01-01T16:23:29;19.63;;;11.55;;
42518;SDS011;28147;47.520;18.920;2023-01-01T16:25:55;16.35;;;10.38;;
42518;SDS011;28147;47.520;18.920;2023-01-01T16:28:21;17.10;;;10.63;;
42518;SDS011;28147;47.520;18.920;2023-01-01T16:30:47;17.13;;;10.60;;
42518;SDS011;28147;47.520;18.920;2023-01-01T16:33:14;20.52;;;10.95;;
42518;SDS011;28147;47.520;18.920;2023-01-01T16:35:42;17.42;;;10.75;;
42518;SDS011;28147;47.520;18.920;2023-01-01T16:38:08;16.40;;;10.18;;
42518;SDS011;28147;47.520;18.920;2023-01-01T16:40:33;16.52;;;9.65;;
42518;SDS011;28147;47.520;18.920;2023-01-01T16:42:59;17.05;;;10.75;;
42518;SDS011;28147;47.520;18.920;2023-01-01T16:45:25;17.73;;;10.75;;
42518;SDS011;28147;47.520;18.920;2023-01-01T16:47:50;19.83;;;10.13;;
42518;SDS011;28147;47.520;18.920;2023-01-01T16:50:16;16.75;;;10.88;;
42518;SDS011;28147;47.520;18.920;2023-01-01T16:52:42;19.70;;;10.77;;
42518;SDS011;28147;47.520;18.920;2023-01-01T16:55:08;17.58;;;10.60;;
42518;SDS011;28147;47.520;18.920;2023-01-01T16:57:33;16.58;;;10.45;;
42518;SDS011;28147;47.520;18.920;2023-01-01T16:59:59;18.33;;;11.35;;
42518;SDS011;28147;47.520;18.920;2023-01-01T17:02:25;16.92;;;11.07;;
42518;SDS011;28147;47.520;18.920;2023-01-01T17:04:51;15.32;;;9.90;;